createdAt,value
2023-01-07T00:01:57.253Z,78.61
2023-01-07T00:07:00.002Z,78.23
2023-01-07T00:12:02.514Z,78.45
2023-01-07T00:17:05.051Z,79.20
2023-01-07T00:22:07.805Z,78.38
2023-01-07T00:27:10.526Z,78.28
2023-01-07T00:32:13.286Z,78.55
2023-01-07T00:37:38.510Z,78.90
2023-01-07T00:42:57.280Z,78.46
2023-01-07T00:48:01.000Z,78.88
2023-01-07T00:53:04.366Z,79.06
2023-01-07T00:58:07.277Z,79.14
2023-01-07T01:03:12.212Z,78.65
2023-01-07T01:08:14.993Z,78.94
2023-01-07T01:13:18.592Z,78.92
2023-01-07T01:18:21.281Z,79.51
2023-01-07T01:23:24.217Z,79.24
2023-01-07T01:28:26.889Z,79.33
2023-01-07T01:33:29.769Z,79.24
2023-01-07T01:38:32.725Z,79.46
2023-01-07T01:43:37.193Z,79.22
2023-01-07T01:48:45.991Z,79.13
2023-01-07T01:53:48.807Z,79.10
2023-01-07T01:58:59.101Z,78.83
2023-01-07T02:04:12.220Z,78.80
2023-01-07T02:09:15.021Z,79.02
2023-01-07T02:14:27.316Z,79.42
2023-01-07T02:19:51.107Z,79.88
2023-01-07T02:25:34.376Z,79.55
2023-01-07T02:30:43.100Z,80.06
2023-01-07T02:36:08.851Z,79.76
2023-01-07T02:41:43.686Z,79.78
2023-01-07T02:47:09.305Z,80.05
2023-01-07T02:52:26.913Z,80.15
2023-01-07T02:57:51.619Z,79.97
2023-01-07T03:03:26.744Z,80.16
2023-01-07T03:08:40.180Z,80.40
2023-01-07T03:13:55.706Z,80.22
2023-01-07T03:19:04.783Z,80.55
2023-01-07T03:24:08.530Z,79.89
2023-01-07T03:29:12.744Z,80.33
2023-01-07T03:34:17.557Z,80.42
2023-01-07T03:39:26.582Z,80.56
2023-01-07T03:44:29.978Z,80.57
2023-01-07T03:49:34.586Z,81.14
2023-01-07T03:54:38.035Z,80.91
2023-01-07T03:59:40.965Z,80.43
2023-01-07T04:04:43.889Z,80.57
2023-01-07T04:09:50.858Z,80.48
2023-01-07T04:14:54.151Z,80.22
2023-01-07T04:19:57.091Z,80.11
2023-01-07T04:25:00.418Z,80.24
2023-01-07T04:30:03.437Z,80.01
2023-01-07T04:35:09.836Z,80.02
2023-01-07T04:40:12.888Z,80.57
2023-01-07T04:45:15.731Z,80.08
2023-01-07T04:50:18.634Z,80.13
2023-01-07T04:55:21.583Z,79.71
2023-01-07T05:00:24.512Z,79.88
2023-01-07T05:05:29.424Z,79.89
2023-01-07T05:10:33.430Z,79.76
2023-01-07T05:15:37.264Z,79.29
2023-01-07T05:20:40.472Z,79.15
2023-01-07T05:25:43.580Z,78.98
2023-01-07T05:30:47.684Z,78.68
2023-01-07T05:35:50.513Z,79.19
2023-01-07T05:40:54.351Z,79.41
2023-01-07T05:46:01.245Z,79.10
2023-01-07T05:51:04.103Z,79.33
2023-01-07T05:56:06.987Z,79.54
2023-01-07T06:01:09.806Z,80.13
2023-01-07T06:06:12.557Z,79.77
2023-01-07T06:11:15.977Z,80.08
2023-01-07T06:16:18.697Z,79.75
2023-01-07T06:21:21.949Z,80.31
2023-01-07T06:26:24.804Z,80.09
2023-01-07T06:31:27.588Z,80.58
2023-01-07T06:36:30.421Z,80.25
2023-01-07T06:41:33.250Z,79.81
2023-01-07T06:46:36.113Z,79.17
2023-01-07T06:51:38.716Z,78.80
2023-01-07T06:56:41.381Z,79.04
2023-01-07T07:01:46.994Z,79.24
2023-01-07T07:06:49.744Z,79.88
2023-01-07T07:11:52.441Z,79.78
2023-01-07T07:16:55.113Z,79.94
2023-01-07T07:21:57.839Z,79.49
2023-01-07T07:27:00.639Z,79.82
2023-01-07T07:32:03.657Z,79.88
2023-01-07T07:37:06.480Z,79.59
2023-01-07T07:42:09.408Z,79.04
2023-01-07T07:47:12.805Z,79.63
2023-01-07T07:52:15.506Z,79.67
2023-01-07T07:57:18.205Z,79.75
2023-01-07T08:02:21.088Z,79.63
2023-01-07T08:07:32.031Z,79.34
2023-01-07T08:12:39.245Z,79.39
2023-01-07T08:17:42.053Z,79.47
2023-01-07T08:22:44.821Z,79.71
2023-01-07T08:27:47.432Z,79.83
2023-01-07T08:32:50.203Z,80.21
2023-01-07T08:37:52.928Z,80.25
2023-01-07T08:43:01.750Z,80.36
2023-01-07T08:48:05.264Z,80.20
2023-01-07T08:53:07.921Z,80.26
2023-01-07T08:58:10.574Z,79.91
2023-01-07T09:03:13.356Z,80.10
2023-01-07T09:08:16.022Z,80.52
2023-01-07T09:13:18.752Z,80.22
2023-01-07T09:18:21.922Z,80.33
2023-01-07T09:23:24.641Z,80.60
2023-01-07T09:28:27.307Z,79.92
2023-01-07T09:33:30.058Z,80.26
2023-01-07T09:38:33.425Z,80.45
2023-01-07T09:43:59.836Z,80.63
2023-01-07T09:49:04.439Z,81.21
2023-01-07T09:54:41.044Z,80.72
2023-01-07T09:59:46.961Z,81.31
2023-01-07T10:04:52.687Z,81.44
2023-01-07T10:10:12.010Z,81.30
2023-01-07T10:15:43.209Z,81.53
2023-01-07T10:21:09.116Z,81.58
2023-01-07T10:26:22.607Z,81.93
2023-01-07T10:31:26.737Z,81.65
2023-01-07T10:36:32.072Z,81.86
2023-01-07T10:41:41.657Z,81.87
2023-01-07T10:47:02.650Z,81.82
2023-01-07T10:52:27.259Z,81.87
2023-01-07T10:57:34.041Z,82.43
2023-01-07T11:02:39.559Z,82.24
2023-01-07T11:07:48.650Z,82.29
2023-01-07T11:12:57.936Z,82.58
2023-01-07T11:18:03.866Z,82.52
2023-01-07T11:23:25.146Z,82.46
2023-01-07T11:28:30.568Z,82.65
2023-01-07T11:34:02.009Z,82.82
2023-01-07T11:39:17.120Z,82.93
2023-01-07T11:44:20.039Z,82.84
2023-01-07T11:49:30.911Z,82.93
2023-01-07T11:54:33.580Z,83.01
2023-01-07T11:59:36.408Z,83.32
2023-01-07T12:04:40.666Z,83.38
2023-01-07T12:09:44.014Z,83.66
2023-01-07T12:14:47.917Z,83.76
2023-01-07T12:20:27.523Z,84.13
2023-01-07T12:25:48.573Z,84.14
2023-01-07T12:31:10.230Z,84.25
2023-01-07T12:36:39.487Z,84.34
2023-01-07T12:41:45.340Z,84.79
2023-01-07T12:47:31.355Z,85.16
2023-01-07T12:52:32.017Z,85.21
2023-01-07T12:57:39.669Z,85.21
2023-01-07T13:03:01.071Z,85.41
2023-01-07T13:08:28.933Z,85.63
2023-01-07T13:13:35.188Z,86.03
2023-01-07T13:18:38.045Z,86.33
2023-01-07T13:24:19.043Z,86.30
2023-01-07T13:29:31.517Z,86.87
2023-01-07T13:34:38.511Z,87.11
2023-01-07T13:40:02.695Z,87.08
2023-01-07T13:45:13.871Z,87.12
2023-01-07T13:50:24.159Z,87.36
2023-01-07T13:55:37.393Z,87.74
2023-01-07T14:01:02.671Z,87.96
2023-01-07T14:06:20.902Z,88.09
2023-01-07T14:11:55.515Z,87.53
2023-01-07T14:17:32.704Z,87.94
2023-01-07T14:22:50.284Z,88.48
2023-01-07T14:28:20.923Z,88.49
2023-01-07T14:33:25.448Z,88.18
2023-01-07T14:38:34.059Z,88.56
2023-01-07T14:43:45.487Z,88.75
2023-01-07T14:49:03.578Z,88.39
2023-01-07T14:54:28.690Z,88.66
2023-01-07T14:59:52.791Z,88.47
2023-01-07T15:05:14.120Z,89.16
2023-01-07T15:10:42.057Z,89.29
2023-01-07T15:16:02.656Z,89.21
2023-01-07T15:21:08.580Z,89.44
2023-01-07T15:26:21.600Z,89.79
2023-01-07T15:31:40.583Z,89.57
2023-01-07T15:36:48.999Z,90.21
2023-01-07T15:41:55.857Z,90.25
2023-01-07T15:46:58.657Z,90.39
2023-01-07T15:52:02.383Z,90.49
2023-01-07T15:57:10.824Z,90.69
2023-01-07T16:02:42.877Z,91.04
2023-01-07T16:07:48.562Z,90.93
2023-01-07T16:12:56.735Z,91.22
2023-01-07T16:18:04.948Z,91.50
2023-01-07T16:23:10.520Z,91.32
2023-01-07T16:28:30.388Z,91.82
2023-01-07T16:33:34.493Z,91.73
2023-01-07T16:38:38.094Z,91.94
2023-01-07T16:43:40.922Z,91.64
2023-01-07T16:48:44.055Z,92.18
2023-01-07T16:53:46.785Z,92.35
2023-01-07T16:58:53.195Z,92.19
2023-01-07T17:04:02.310Z,91.96
2023-01-07T17:09:05.369Z,92.33
2023-01-07T17:14:44.420Z,92.13
2023-01-07T17:19:54.756Z,92.30
2023-01-07T17:25:16.959Z,92.70
2023-01-07T17:30:21.621Z,93.03
2023-01-07T17:35:24.789Z,93.02
2023-01-07T17:40:27.520Z,92.95
2023-01-07T17:45:30.460Z,92.68
2023-01-07T17:50:37.148Z,93.38
2023-01-07T17:55:39.848Z,93.27
2023-01-07T18:00:42.941Z,93.32
2023-01-07T18:05:45.785Z,93.09
2023-01-07T18:11:08.157Z,93.11
2023-01-07T18:16:12.910Z,93.47
2023-01-07T18:21:15.773Z,92.72
2023-01-07T18:26:19.408Z,92.47
2023-01-07T18:31:22.208Z,92.50
2023-01-07T18:36:24.973Z,92.80
2023-01-07T18:41:27.733Z,93.07
2023-01-07T18:46:30.484Z,93.03
2023-01-07T18:51:33.187Z,93.16
2023-01-07T18:56:35.929Z,92.71
2023-01-07T19:01:38.783Z,92.79
2023-01-07T19:06:41.559Z,93.17
2023-01-07T19:11:44.212Z,93.56
2023-01-07T19:16:46.983Z,92.83
2023-01-07T19:21:50.795Z,92.79
2023-01-07T19:26:53.456Z,92.88
2023-01-07T19:31:56.193Z,92.99
2023-01-07T19:36:58.880Z,93.19
2023-01-07T19:42:01.738Z,92.58
2023-01-07T19:47:04.527Z,91.88
2023-01-07T19:52:07.198Z,91.45
2023-01-07T19:57:10.104Z,91.26
2023-01-07T20:02:14.730Z,90.91
2023-01-07T20:07:17.315Z,90.61
2023-01-07T20:12:20.110Z,90.32
2023-01-07T20:17:22.823Z,90.54
2023-01-07T20:22:25.509Z,89.89
2023-01-07T20:27:28.222Z,89.45
2023-01-07T20:32:30.869Z,89.23
2023-01-07T20:37:35.048Z,88.74
2023-01-07T20:42:37.894Z,89.42
2023-01-07T20:47:40.734Z,88.94
2023-01-07T20:52:43.401Z,88.91
2023-01-07T20:57:46.098Z,89.02
2023-01-07T21:02:48.861Z,89.63
2023-01-07T21:07:51.888Z,89.84
2023-01-07T21:12:54.617Z,90.45
2023-01-07T21:17:57.350Z,90.75
2023-01-07T21:23:00.126Z,91.64
2023-01-07T21:28:03.582Z,91.29
2023-01-07T21:33:06.393Z,92.09
2023-01-07T21:38:09.035Z,92.28
2023-01-07T21:43:11.833Z,93.27
2023-01-07T21:48:14.705Z,92.44
2023-01-07T21:53:18.952Z,93.26
2023-01-07T21:58:21.701Z,93.57
2023-01-07T22:03:24.540Z,92.97
2023-01-07T22:08:27.514Z,93.58
2023-01-07T22:13:30.248Z,93.52
2023-01-07T22:18:32.907Z,93.70
2023-01-07T22:23:37.371Z,93.73
2023-01-07T22:28:40.889Z,94.02
2023-01-07T22:33:43.486Z,94.21
2023-01-07T22:38:46.204Z,94.64
2023-01-07T22:43:49.180Z,94.43
2023-01-07T22:48:52.148Z,94.68
2023-01-07T22:53:56.081Z,95.23
2023-01-07T22:58:58.809Z,95.54
2023-01-07T23:04:01.716Z,95.21
2023-01-07T23:09:05.153Z,95.38
2023-01-07T23:14:08.160Z,95.52
2023-01-07T23:19:10.888Z,95.79
2023-01-07T23:24:14.422Z,96.18
2023-01-07T23:29:18.147Z,96.55
2023-01-07T23:34:20.914Z,95.96
2023-01-07T23:39:23.548Z,96.73
2023-01-07T23:44:26.217Z,96.49
2023-01-07T23:49:28.959Z,96.42
2023-01-07T23:54:31.551Z,96.06
2023-01-07T23:59:34.322Z,96.31
